KCDS/CDS METAR and TAF weather

Enter ICAO airport designator
Station Type Date Time Source
KCDS METAR 2023/02/04 02:53 UTC NOAA

KCDS 040253Z AUTO 17010KT 10SM CLR 04/M02 A3038 RMK AO2 SLP296 T00441017 58001


Station Type Date Time Source
KCDS Decoded METAR 2023/02/04 02:53 UTC NOAA

CHILDRESS MUNICIPAL AIRPORT, TX, United States (KCDS) 34-26N 100-17W 594M
Feb 03, 2023 - 09:53 PM EST / 2023.02.04 0253 UTC
Wind: from the S (170 degrees) at 12 MPH (10 KT):0
Visibility: 10 mile(s):0
Sky conditions: clear
Temperature: 39.9 F (4.4 C)
Dew Point: 28.9 F (-1.7 C)
Relative Humidity: 64%
Pressure (altimeter): 30.38 in. Hg (1028 hPa)
Pressure tendency: 0.00 inches (0.1 hPa) lower than three hours ago
ob: KCDS 040253Z AUTO 17010KT 10SM CLR 04/M02 A3038 RMK AO2 SLP296 T00441017 58001
cycle: 3

Station Type Date Time Source
KCDS TAF 2023/02/03 18:22 UTC NOAA

TAF KCDS 031720Z 0318/0418 18011KT P6SM SKC
FM041600 21017KT P6SM FEW250

Example: see airport list